createdAt,value
2018-09-30T00:00:30.695Z,3.10
2018-09-30T00:02:59.314Z,3.10
2018-09-30T00:05:27.380Z,2.80
2018-09-30T00:07:55.381Z,3.13
2018-09-30T00:10:23.434Z,3.27
2018-09-30T00:12:52.541Z,3.57
2018-09-30T00:15:20.566Z,3.30
2018-09-30T00:17:48.649Z,3.23
2018-09-30T00:20:16.658Z,3.70
2018-09-30T00:22:44.670Z,3.30
2018-09-30T00:25:18.214Z,3.40
2018-09-30T00:27:53.185Z,3.47
2018-09-30T00:30:21.325Z,3.90
2018-09-30T00:32:49.369Z,2.80
2018-09-30T00:35:17.382Z,3.10
2018-09-30T00:37:45.407Z,3.30
2018-09-30T00:40:13.489Z,3.23
2018-09-30T00:42:41.514Z,3.37
2018-09-30T00:45:09.662Z,3.43
2018-09-30T00:47:37.666Z,3.80
2018-09-30T00:50:05.966Z,4.57
2018-09-30T00:52:34.024Z,3.67
2018-09-30T00:55:02.044Z,4.53
2018-09-30T00:57:30.077Z,4.40
2018-09-30T00:59:58.145Z,4.80
2018-09-30T01:02:26.159Z,3.37
2018-09-30T01:04:54.185Z,3.77
2018-09-30T01:07:22.238Z,3.27
2018-09-30T01:09:56.742Z,3.87
2018-09-30T01:12:24.768Z,3.80
2018-09-30T01:14:52.818Z,3.80
2018-09-30T01:17:20.823Z,3.40
2018-09-30T01:19:48.866Z,3.23
2018-09-30T01:22:17.881Z,3.93
2018-09-30T01:24:45.913Z,3.60
2018-09-30T01:27:13.958Z,4.30
2018-09-30T01:29:42.041Z,3.37
2018-09-30T01:32:10.061Z,4.50
2018-09-30T01:34:38.068Z,4.83
2018-09-30T01:37:06.081Z,4.40
2018-09-30T01:39:34.114Z,3.97
2018-09-30T01:42:02.181Z,4.13
2018-09-30T01:44:30.193Z,4.33
2018-09-30T01:46:58.217Z,3.40
2018-09-30T01:49:26.302Z,4.03
2018-09-30T01:52:05.918Z,3.90
2018-09-30T01:54:33.968Z,4.33
2018-09-30T01:57:02.124Z,4.10
2018-09-30T01:59:30.292Z,4.73
2018-09-30T02:01:58.542Z,4.30
2018-09-30T02:04:26.559Z,4.10
2018-09-30T02:06:54.610Z,4.20
2018-09-30T02:09:22.635Z,3.63
2018-09-30T02:11:50.683Z,4.40
2018-09-30T02:14:18.711Z,4.27
2018-09-30T02:16:46.733Z,4.60
2018-09-30T02:19:14.742Z,4.60
2018-09-30T02:21:42.844Z,4.67
2018-09-30T02:24:10.866Z,3.70
2018-09-30T02:26:38.929Z,4.83
2018-09-30T02:29:07.106Z,5.03
2018-09-30T02:31:35.151Z,4.17
2018-09-30T02:34:03.210Z,3.70
2018-09-30T02:36:31.283Z,3.93
2018-09-30T02:38:59.296Z,4.17
2018-09-30T02:41:27.335Z,4.43
2018-09-30T02:43:55.382Z,3.83
2018-09-30T02:46:23.430Z,3.43
2018-09-30T02:48:51.460Z,3.70
2018-09-30T02:51:19.483Z,3.37
2018-09-30T02:53:47.497Z,3.30
2018-09-30T02:56:15.538Z,3.30
2018-09-30T02:58:43.563Z,3.60
2018-09-30T03:01:11.571Z,3.50
2018-09-30T03:03:39.621Z,3.70
2018-09-30T03:06:12.290Z,3.83
2018-09-30T03:08:45.753Z,4.10
2018-09-30T03:11:13.765Z,3.27
2018-09-30T03:13:41.878Z,3.40
2018-09-30T03:16:09.906Z,3.47
2018-09-30T03:18:37.966Z,3.10
2018-09-30T03:21:05.969Z,3.70
2018-09-30T03:23:33.991Z,3.80
2018-09-30T03:26:02.042Z,3.60
2018-09-30T03:28:30.081Z,3.10
2018-09-30T03:30:58.158Z,3.37
2018-09-30T03:33:26.204Z,3.60
2018-09-30T03:35:54.262Z,3.20
2018-09-30T03:38:22.328Z,3.70
2018-09-30T03:40:50.411Z,3.13
2018-09-30T03:43:18.484Z,3.40
2018-09-30T03:45:46.553Z,2.77
2018-09-30T03:48:14.597Z,3.80
2018-09-30T03:50:42.642Z,3.27
2018-09-30T03:53:10.752Z,3.73
2018-09-30T03:55:38.907Z,3.20
2018-09-30T03:58:06.922Z,3.80
2018-09-30T04:00:34.958Z,3.90
2018-09-30T04:03:02.976Z,4.00
2018-09-30T04:05:31.016Z,4.03
2018-09-30T04:08:00.132Z,3.37
2018-09-30T04:10:28.149Z,3.53
2018-09-30T04:12:56.351Z,5.07
2018-09-30T04:15:24.436Z,5.13
2018-09-30T04:17:52.492Z,5.03
2018-09-30T04:20:20.554Z,5.23
2018-09-30T04:22:48.623Z,5.20
2018-09-30T04:25:16.694Z,5.20
2018-09-30T04:27:44.739Z,5.00
2018-09-30T04:30:12.834Z,5.13
2018-09-30T04:32:40.939Z,4.77
2018-09-30T04:35:08.981Z,4.27
2018-09-30T04:37:37.005Z,4.73
2018-09-30T04:40:05.051Z,4.30
2018-09-30T04:42:33.098Z,5.03
2018-09-30T04:45:01.141Z,4.53
2018-09-30T04:47:29.758Z,4.53
2018-09-30T04:49:57.847Z,4.17
2018-09-30T04:52:25.833Z,4.20
2018-09-30T04:54:53.845Z,3.83
2018-09-30T04:57:21.853Z,3.60
2018-09-30T04:59:49.923Z,3.30
2018-09-30T05:02:17.971Z,3.70
2018-09-30T05:04:45.994Z,3.43
2018-09-30T05:07:14.077Z,4.43
2018-09-30T05:09:42.102Z,3.87
2018-09-30T05:12:10.137Z,4.10
2018-09-30T05:14:38.276Z,3.67
2018-09-30T05:17:06.324Z,4.27
2018-09-30T05:19:34.373Z,4.10
2018-09-30T05:22:02.415Z,4.20
2018-09-30T05:24:30.443Z,4.40
2018-09-30T05:26:58.458Z,3.53
2018-09-30T05:29:26.462Z,3.37
2018-09-30T05:31:54.546Z,4.10
2018-09-30T05:34:22.605Z,3.93
2018-09-30T05:36:50.646Z,4.20
2018-09-30T05:39:18.686Z,4.30
2018-09-30T05:41:46.743Z,3.57
2018-09-30T05:44:14.766Z,3.00
2018-09-30T05:46:42.822Z,3.63
2018-09-30T05:49:10.969Z,2.93
2018-09-30T05:51:38.970Z,3.80
2018-09-30T05:54:06.995Z,3.57
2018-09-30T05:56:35.207Z,2.73
2018-09-30T05:59:03.314Z,3.10
2018-09-30T06:01:31.370Z,3.50
2018-09-30T06:03:59.484Z,2.93
2018-09-30T06:06:27.469Z,3.70
2018-09-30T06:08:55.593Z,3.70
2018-09-30T06:11:23.611Z,3.30
2018-09-30T06:13:51.659Z,3.50
2018-09-30T06:16:19.713Z,4.40
2018-09-30T06:18:47.750Z,3.97
2018-09-30T06:21:15.831Z,3.37
2018-09-30T06:23:43.866Z,3.30
2018-09-30T06:26:11.912Z,3.00
2018-09-30T06:28:39.942Z,3.27
2018-09-30T06:31:08.033Z,3.30
2018-09-30T06:33:36.087Z,3.60
2018-09-30T06:36:04.121Z,3.63
2018-09-30T06:38:32.171Z,2.63
2018-09-30T06:41:00.218Z,2.90
2018-09-30T06:43:28.257Z,2.60
2018-09-30T06:45:56.330Z,3.00
2018-09-30T06:48:24.373Z,2.67
2018-09-30T06:50:52.479Z,2.67
2018-09-30T06:53:20.525Z,3.20
2018-09-30T06:55:48.655Z,2.87
2018-09-30T06:58:16.815Z,3.60
2018-09-30T07:00:44.817Z,3.10
2018-09-30T07:03:12.902Z,3.90
2018-09-30T07:05:40.985Z,3.17
2018-09-30T07:08:09.040Z,2.63
2018-09-30T07:10:37.078Z,3.10
2018-09-30T07:13:05.200Z,3.50
2018-09-30T07:15:33.216Z,2.67
2018-09-30T07:18:01.386Z,3.10
2018-09-30T07:20:29.402Z,2.73
2018-09-30T07:22:57.496Z,2.50
2018-09-30T07:25:25.563Z,2.40
2018-09-30T07:27:53.628Z,2.40
2018-09-30T07:30:21.751Z,2.63
2018-09-30T07:32:49.811Z,2.40
2018-09-30T07:35:18.358Z,2.33
2018-09-30T07:37:46.431Z,2.30
2018-09-30T07:40:14.446Z,3.03
2018-09-30T07:42:42.520Z,2.33
2018-09-30T07:45:10.525Z,2.73
2018-09-30T07:47:38.646Z,2.23
2018-09-30T07:50:06.774Z,2.87
2018-09-30T07:52:35.011Z,2.90
2018-09-30T07:55:03.113Z,2.27
2018-09-30T07:57:33.468Z,2.30
2018-09-30T08:00:01.735Z,2.67
2018-09-30T08:02:29.902Z,2.57
2018-09-30T08:04:59.189Z,2.80
2018-09-30T08:07:27.399Z,2.50
2018-09-30T08:09:55.721Z,2.87
2018-09-30T08:12:23.998Z,2.40
2018-09-30T08:14:52.123Z,3.47
2018-09-30T08:17:20.353Z,2.47
2018-09-30T08:19:48.593Z,2.30
2018-09-30T08:22:17.849Z,2.40
2018-09-30T08:24:45.879Z,2.57
2018-09-30T08:27:14.044Z,2.40
2018-09-30T08:29:42.371Z,2.13
2018-09-30T08:32:10.481Z,2.50
2018-09-30T08:34:38.940Z,2.97
2018-09-30T08:37:07.250Z,2.23
2018-09-30T08:39:35.474Z,2.30
2018-09-30T08:42:03.817Z,2.40
2018-09-30T08:44:31.956Z,3.13
2018-09-30T08:47:01.062Z,2.80
2018-09-30T08:49:29.142Z,3.37
2018-09-30T08:51:57.258Z,2.07
2018-09-30T08:54:25.634Z,2.83
2018-09-30T08:56:53.710Z,2.53
2018-09-30T08:59:21.809Z,2.80
2018-09-30T09:01:49.814Z,2.93
2018-09-30T09:04:17.981Z,2.20
2018-09-30T09:06:46.046Z,2.63
2018-09-30T09:09:14.141Z,2.30
2018-09-30T09:11:42.158Z,2.30
2018-09-30T09:14:10.289Z,2.60
2018-09-30T09:16:38.348Z,2.60
2018-09-30T09:19:06.442Z,2.30
2018-09-30T09:21:34.491Z,2.87
2018-09-30T09:24:02.548Z,1.80
2018-09-30T09:29:08.333Z,3.10
2018-09-30T09:31:36.521Z,2.60
2018-09-30T09:34:04.562Z,2.30
2018-09-30T09:36:34.509Z,2.30
2018-09-30T09:39:06.604Z,2.33
2018-09-30T09:41:34.750Z,2.80
2018-09-30T09:44:02.912Z,2.30
2018-09-30T09:46:30.942Z,2.43
2018-09-30T09:48:59.038Z,2.77
2018-09-30T09:51:27.099Z,2.40
2018-09-30T09:53:55.202Z,2.63
2018-09-30T09:56:23.274Z,2.57
2018-09-30T09:58:51.384Z,2.80
2018-09-30T10:01:19.381Z,3.63
2018-09-30T10:03:47.414Z,2.70
2018-09-30T10:06:15.477Z,2.80
2018-09-30T10:08:43.543Z,2.87
2018-09-30T10:11:11.597Z,2.50
2018-09-30T10:13:39.738Z,2.73
2018-09-30T10:16:07.819Z,3.00
2018-09-30T10:18:35.902Z,2.60
2018-09-30T10:21:03.979Z,2.50
2018-09-30T10:23:32.002Z,3.10
2018-09-30T10:26:00.102Z,3.83
2018-09-30T10:28:28.182Z,3.80
2018-09-30T10:30:58.013Z,3.00
2018-09-30T10:33:26.326Z,3.40
2018-09-30T10:35:55.451Z,3.63
2018-09-30T10:38:23.643Z,3.97
2018-09-30T10:40:52.858Z,3.27
2018-09-30T10:43:20.901Z,2.80
2018-09-30T10:45:49.103Z,3.17
2018-09-30T10:48:17.166Z,2.93
2018-09-30T10:50:45.197Z,2.97
2018-09-30T10:53:13.295Z,3.23
2018-09-30T10:55:41.414Z,3.30
2018-09-30T10:58:09.602Z,3.37
2018-09-30T11:00:37.698Z,3.53
2018-09-30T11:05:40.197Z,3.47
2018-09-30T11:08:08.282Z,3.40
2018-09-30T11:10:36.322Z,3.33
2018-09-30T11:13:04.446Z,3.13
2018-09-30T11:15:32.529Z,3.20
2018-09-30T11:18:00.588Z,3.57
2018-09-30T11:20:28.694Z,3.30
2018-09-30T11:22:56.765Z,3.90
2018-09-30T11:25:24.877Z,3.27
2018-09-30T11:27:52.990Z,3.13
2018-09-30T11:30:21.273Z,2.50
2018-09-30T11:32:49.575Z,2.90
2018-09-30T11:35:17.721Z,2.83
2018-09-30T11:37:45.989Z,4.27
2018-09-30T11:40:14.073Z,3.73
2018-09-30T11:42:42.546Z,2.80
2018-09-30T11:45:10.662Z,3.30
2018-09-30T11:47:38.906Z,2.13
2018-09-30T11:50:06.933Z,2.47
2018-09-30T11:52:35.045Z,3.63
2018-09-30T11:55:03.251Z,2.70
2018-09-30T11:57:31.590Z,2.20
2018-09-30T11:59:59.857Z,2.90
2018-09-30T12:02:27.914Z,2.43
2018-09-30T12:04:56.000Z,2.90
2018-09-30T12:07:24.150Z,3.20
2018-09-30T12:09:52.189Z,2.60
2018-09-30T12:12:21.481Z,3.00
2018-09-30T12:14:49.577Z,2.77
2018-09-30T12:17:17.855Z,3.60
2018-09-30T12:19:46.046Z,3.07
2018-09-30T12:22:14.118Z,4.03
2018-09-30T12:24:42.295Z,3.10
2018-09-30T12:27:10.390Z,2.80
2018-09-30T12:29:38.518Z,4.17
2018-09-30T12:32:06.998Z,2.63
2018-09-30T12:34:35.216Z,2.70
2018-09-30T12:37:03.333Z,3.00
2018-09-30T12:39:31.474Z,3.50
2018-09-30T12:41:59.723Z,2.80
2018-09-30T12:44:27.993Z,2.43
2018-09-30T12:46:56.227Z,3.27
2018-09-30T12:49:24.293Z,3.37
2018-09-30T12:51:52.649Z,3.10
2018-09-30T12:54:20.730Z,3.27
2018-09-30T12:56:48.784Z,3.00
2018-09-30T12:59:16.818Z,3.80
2018-09-30T13:01:44.941Z,2.60
2018-09-30T13:04:13.058Z,2.90
2018-09-30T13:06:41.174Z,2.80
2018-09-30T13:09:10.091Z,3.40
2018-09-30T13:11:38.397Z,2.90
2018-09-30T13:14:06.919Z,3.10
2018-09-30T13:16:35.113Z,3.17
2018-09-30T13:19:03.177Z,2.50
2018-09-30T13:21:31.302Z,2.70
2018-09-30T13:23:59.446Z,2.50
2018-09-30T13:26:27.498Z,2.77
2018-09-30T13:28:55.599Z,2.67
2018-09-30T13:31:24.089Z,2.77
2018-09-30T13:33:52.165Z,2.40
2018-09-30T13:36:20.326Z,3.47
2018-09-30T13:38:48.445Z,3.50
2018-09-30T13:41:16.470Z,2.80
2018-09-30T13:43:44.566Z,2.30
2018-09-30T13:46:12.682Z,2.47
2018-09-30T13:48:40.786Z,3.00
2018-09-30T13:51:08.894Z,3.03
2018-09-30T13:53:37.106Z,2.87
2018-09-30T13:56:05.134Z,2.87
2018-09-30T13:58:33.166Z,3.20
2018-09-30T14:01:01.364Z,3.33
2018-09-30T14:03:29.509Z,2.97
2018-09-30T14:05:57.619Z,2.83
2018-09-30T14:08:25.675Z,2.67
2018-09-30T14:10:53.714Z,3.13
2018-09-30T14:13:21.784Z,2.80
2018-09-30T14:15:49.981Z,2.93
2018-09-30T14:18:18.102Z,2.63
2018-09-30T14:20:46.196Z,3.27
2018-09-30T14:23:14.238Z,2.30
2018-09-30T14:25:43.363Z,2.90
2018-09-30T14:28:11.457Z,2.90
2018-09-30T14:30:39.613Z,3.63
2018-09-30T14:33:07.878Z,3.33
2018-09-30T14:35:35.942Z,3.40
2018-09-30T14:38:04.012Z,3.57
2018-09-30T14:40:32.057Z,3.20
2018-09-30T14:43:00.140Z,3.60
2018-09-30T14:45:28.169Z,3.37
2018-09-30T14:47:56.298Z,3.10
2018-09-30T14:50:24.454Z,3.60
2018-09-30T14:52:52.851Z,2.80
2018-09-30T14:55:20.926Z,3.00
2018-09-30T14:57:48.959Z,3.80
2018-09-30T15:00:16.981Z,3.07
2018-09-30T15:02:45.062Z,3.60
2018-09-30T15:05:13.083Z,2.77
2018-09-30T15:07:41.139Z,3.53
2018-09-30T15:10:09.155Z,4.40
2018-09-30T15:12:37.775Z,3.73
2018-09-30T15:15:07.467Z,3.90
2018-09-30T15:17:35.590Z,4.90
2018-09-30T15:20:03.610Z,3.53
2018-09-30T15:22:31.646Z,3.40
2018-09-30T15:25:00.147Z,3.50
2018-09-30T15:27:28.204Z,3.40
2018-09-30T15:29:56.205Z,4.00
2018-09-30T15:32:24.238Z,3.77
2018-09-30T15:34:52.255Z,3.20
2018-09-30T15:37:20.409Z,3.87
2018-09-30T15:39:48.449Z,3.63
2018-09-30T15:42:16.539Z,3.30
2018-09-30T15:44:44.548Z,3.00
2018-09-30T15:47:12.573Z,3.70
2018-09-30T15:49:40.680Z,3.50
2018-09-30T15:52:08.705Z,3.43
2018-09-30T15:54:36.784Z,3.43
2018-09-30T15:57:05.910Z,14.40
2018-09-30T15:59:33.986Z,45.03
2018-09-30T16:02:02.007Z,14.97
2018-09-30T16:04:30.064Z,11.50
2018-09-30T16:06:58.195Z,7.97
2018-09-30T16:09:26.271Z,7.33
2018-09-30T16:11:54.331Z,7.10
2018-09-30T16:14:22.540Z,4.90
2018-09-30T16:16:50.614Z,4.40
2018-09-30T16:19:18.735Z,4.33
2018-09-30T16:21:46.832Z,5.53
2018-09-30T16:24:14.861Z,4.17
2018-09-30T16:26:42.942Z,3.70
2018-09-30T16:29:10.992Z,3.37
2018-09-30T16:31:39.054Z,3.87
2018-09-30T16:34:07.103Z,5.30
2018-09-30T16:36:35.184Z,5.17
2018-09-30T16:39:03.462Z,6.33
2018-09-30T16:41:31.534Z,7.00
2018-09-30T16:43:59.552Z,6.03
2018-09-30T16:46:27.617Z,6.83
2018-09-30T16:48:55.691Z,4.77
2018-09-30T16:51:23.765Z,6.30
2018-09-30T16:53:51.809Z,5.07
2018-09-30T16:56:19.858Z,4.97
2018-09-30T16:58:47.923Z,5.37
2018-09-30T17:01:16.042Z,4.70
2018-09-30T17:03:44.194Z,3.20
2018-09-30T17:06:12.269Z,3.80
2018-09-30T17:08:40.312Z,3.33
2018-09-30T17:11:08.384Z,6.30
2018-09-30T17:13:36.545Z,4.20
2018-09-30T17:16:05.696Z,3.87
2018-09-30T17:18:33.802Z,3.87
2018-09-30T17:21:01.872Z,3.60
2018-09-30T17:23:30.309Z,3.70
2018-09-30T17:25:58.311Z,3.30
2018-09-30T17:28:26.713Z,3.77
2018-09-30T17:30:54.897Z,3.53
2018-09-30T17:33:23.029Z,3.37
2018-09-30T17:35:51.092Z,3.70
2018-09-30T17:38:19.163Z,3.80
2018-09-30T17:40:47.247Z,4.50
2018-09-30T17:43:15.330Z,5.60
2018-09-30T17:45:43.392Z,3.90
2018-09-30T17:48:11.778Z,4.10
2018-09-30T17:50:39.931Z,4.13
2018-09-30T17:53:08.074Z,4.70
2018-09-30T17:55:36.122Z,5.67
2018-09-30T17:58:04.258Z,4.47
2018-09-30T18:00:32.310Z,5.50
2018-09-30T18:05:40.094Z,5.40
2018-09-30T18:08:08.177Z,5.93
2018-09-30T18:10:36.359Z,6.53
2018-09-30T18:13:04.519Z,5.90
2018-09-30T18:15:32.700Z,5.60
2018-09-30T18:18:00.739Z,5.80
2018-09-30T18:20:28.781Z,6.30
2018-09-30T18:22:57.298Z,6.23
2018-09-30T18:25:25.808Z,6.27
2018-09-30T18:27:53.917Z,6.70
2018-09-30T18:30:22.526Z,10.20
2018-09-30T18:32:50.553Z,8.80
2018-09-30T18:35:18.634Z,9.30
2018-09-30T18:37:46.750Z,11.50
2018-09-30T18:40:14.939Z,9.43
2018-09-30T18:42:44.034Z,16.23
2018-09-30T18:45:12.175Z,11.60
2018-09-30T18:47:40.272Z,8.70
2018-09-30T18:50:08.358Z,7.07
2018-09-30T18:52:36.436Z,5.47
2018-09-30T18:55:04.614Z,6.73
2018-09-30T18:57:32.821Z,7.03
2018-09-30T19:00:01.030Z,8.23
2018-09-30T19:02:29.102Z,5.10
2018-09-30T19:04:57.178Z,4.43
2018-09-30T19:07:25.296Z,4.80
2018-09-30T19:09:54.416Z,5.77
2018-09-30T19:12:22.598Z,5.60
2018-09-30T19:14:50.622Z,5.37
2018-09-30T19:17:18.707Z,4.80
2018-09-30T19:19:46.854Z,5.97
2018-09-30T19:22:14.983Z,5.70
2018-09-30T19:24:43.026Z,7.33
2018-09-30T19:27:11.065Z,6.53
2018-09-30T19:29:39.165Z,6.27
2018-09-30T19:32:07.238Z,5.90
2018-09-30T19:34:35.377Z,6.40
2018-09-30T19:37:03.414Z,6.03
2018-09-30T19:39:31.471Z,5.67
2018-09-30T19:41:59.490Z,5.70
2018-09-30T19:44:27.588Z,5.03
2018-09-30T19:46:55.685Z,5.30
2018-09-30T19:49:23.805Z,5.00
2018-09-30T19:51:51.937Z,5.00
2018-09-30T19:54:19.988Z,5.40
2018-09-30T19:56:48.266Z,4.83
2018-09-30T19:59:16.925Z,4.80
2018-09-30T20:01:45.019Z,5.67
2018-09-30T20:04:13.303Z,5.90
2018-09-30T20:06:41.412Z,6.00
2018-09-30T20:09:09.721Z,6.87
2018-09-30T20:11:38.175Z,6.10
2018-09-30T20:14:06.422Z,6.33
2018-09-30T20:16:34.496Z,6.23
2018-09-30T20:19:02.561Z,6.20
2018-09-30T20:21:30.666Z,6.60
2018-09-30T20:23:58.709Z,6.30
2018-09-30T20:26:27.049Z,6.17
2018-09-30T20:28:55.334Z,7.47
2018-09-30T20:31:24.101Z,6.00
2018-09-30T20:33:52.333Z,7.40
2018-09-30T20:36:20.763Z,6.27
2018-09-30T20:38:49.037Z,6.17
2018-09-30T20:41:17.294Z,6.73
2018-09-30T20:43:46.481Z,6.57
2018-09-30T20:46:15.977Z,6.43
2018-09-30T20:48:44.201Z,7.07
2018-09-30T20:51:13.197Z,6.90
2018-09-30T20:53:41.441Z,6.33
2018-09-30T20:56:09.787Z,6.70
2018-09-30T20:58:37.897Z,5.73
2018-09-30T21:01:06.062Z,7.10
2018-09-30T21:03:34.322Z,7.70
2018-09-30T21:06:08.782Z,7.37
2018-09-30T21:08:36.889Z,7.33
2018-09-30T21:11:04.969Z,7.10
2018-09-30T21:13:33.134Z,6.90
2018-09-30T21:16:01.731Z,7.77
2018-09-30T21:18:29.977Z,7.83
2018-09-30T21:20:58.465Z,7.83
2018-09-30T21:23:26.839Z,7.40
2018-09-30T21:25:55.186Z,8.47
2018-09-30T21:28:23.451Z,8.20
2018-09-30T21:30:52.125Z,8.13
2018-09-30T21:33:20.363Z,7.40
2018-09-30T21:35:48.822Z,7.47
2018-09-30T21:38:17.338Z,7.33
2018-09-30T21:40:45.806Z,8.27
2018-09-30T21:43:14.060Z,7.47
2018-09-30T21:45:42.475Z,7.70
2018-09-30T21:48:11.045Z,7.90
2018-09-30T21:50:39.326Z,7.97
2018-09-30T21:53:15.189Z,6.97
2018-09-30T21:55:43.372Z,7.60
2018-09-30T21:58:11.858Z,8.00
2018-09-30T22:00:42.174Z,8.70
2018-09-30T22:03:12.362Z,8.00
2018-09-30T22:05:40.649Z,7.90
2018-09-30T22:08:09.734Z,8.43
2018-09-30T22:10:38.677Z,8.00
2018-09-30T22:13:07.013Z,6.83
2018-09-30T22:15:35.331Z,7.90
2018-09-30T22:18:03.451Z,8.37
2018-09-30T22:20:32.484Z,8.47
2018-09-30T22:23:00.573Z,9.67
2018-09-30T22:25:28.663Z,8.90
2018-09-30T22:27:56.761Z,8.50
2018-09-30T22:30:24.781Z,8.83
2018-09-30T22:32:52.810Z,8.53
2018-09-30T22:35:20.915Z,8.47
2018-09-30T22:37:49.022Z,7.70
2018-09-30T22:40:17.095Z,8.93
2018-09-30T22:42:45.229Z,8.83
2018-09-30T22:45:13.326Z,8.67
2018-09-30T22:47:41.334Z,8.80
2018-09-30T22:50:09.398Z,8.47
2018-09-30T22:52:37.539Z,8.50
2018-09-30T22:55:05.862Z,8.43
2018-09-30T22:57:34.073Z,8.10
2018-09-30T23:00:02.138Z,10.13
2018-09-30T23:02:30.197Z,8.80
2018-09-30T23:04:58.275Z,9.47
2018-09-30T23:07:26.302Z,8.93
2018-09-30T23:09:54.441Z,9.30
2018-09-30T23:12:22.551Z,8.40
2018-09-30T23:14:50.594Z,9.40
2018-09-30T23:17:18.748Z,7.13
2018-09-30T23:19:46.835Z,7.97
2018-09-30T23:22:14.852Z,8.60
2018-09-30T23:24:42.952Z,8.33
2018-09-30T23:27:10.993Z,9.00
2018-09-30T23:29:39.021Z,9.67
2018-09-30T23:32:07.094Z,8.20
2018-09-30T23:34:35.126Z,8.77
2018-09-30T23:37:03.155Z,9.47
2018-09-30T23:39:31.189Z,9.10
2018-09-30T23:41:59.263Z,8.80
2018-09-30T23:44:27.291Z,8.50
2018-09-30T23:46:55.358Z,8.37
2018-09-30T23:49:23.401Z,8.83
2018-09-30T23:51:51.470Z,9.20
2018-09-30T23:54:19.501Z,9.37
2018-09-30T23:56:47.521Z,8.10
2018-09-30T23:59:15.550Z,9.17
